Time;durP1;ratioP1;P1;durP2;ratioP2;P2;SDS_P1;SDS_P2;PMS_P1;PMS_P2;Temp;Humidity;BMP_temperature;BMP_pressure;BME280_temperature;BME280_humidity;BME280_pressure;Samples;Min_cycle;Max_cycle;Signal;HPM_P1;HPM_P2
2023/06/09 00:05:43;;;;;;;4.85;2.83;;;;;;;18.49;58.95;101380.88;5202491;23;20057;-60
2023/06/09 00:08:08;;;;;;;4.45;2.78;;;;;;;18.49;61.81;101385.28;5028739;28;20044;-60
2023/06/09 00:10:34;;;;;;;4.47;2.83;;;;;;;18.48;62.33;101384.41;5240408;23;20064;-60
2023/06/09 00:13:00;;;;;;;4.70;2.70;;;;;;;18.39;61.36;101384.41;5070929;23;20496;-60
2023/06/09 00:18:02;;;;;;;5.47;3.13;;;;;;;18.32;60.92;101380.00;5062759;23;21025;-57
2023/06/09 00:20:33;;;;;;;5.60;2.42;;;;;;;18.23;61.56;101381.78;5028689;28;20029;-57
2023/06/09 00:25:38;;;;;;;5.10;2.58;;;;;;;18.15;59.53;101380.88;5191420;22;20052;-60
2023/06/09 00:28:04;;;;;;;5.13;3.00;;;;;;;18.01;61.63;101374.72;5219339;22;20057;-60
2023/06/09 00:30:29;;;;;;;4.88;2.88;;;;;;;17.98;61.83;101380.00;5100547;22;20084;-61
2023/06/09 00:32:54;;;;;;;5.47;2.90;;;;;;;17.97;60.81;101375.59;5029054;28;20056;-60
2023/06/09 00:37:55;;;;;;;6.18;3.00;;;;;;;17.89;62.69;101376.41;5247957;22;20521;-60
2023/06/09 00:40:21;;;;;;;4.80;2.47;;;;;;;17.89;62.23;101370.28;5018671;28;20114;-61
2023/06/09 00:42:46;;;;;;;4.30;2.83;;;;;;;17.87;62.05;101374.66;5352638;22;21338;-60
2023/06/09 00:47:47;;;;;;;4.20;2.88;;;;;;;17.87;62.65;101370.28;5214060;22;20119;-60
2023/06/09 00:57:47;;;;;;;5.28;3.10;;;;;;;17.62;62.36;101371.09;5076408;22;20047;-57
2023/06/09 01:00:16;;;;;;;5.18;3.20;;;;;;;17.64;63.11;101372.84;5137274;22;20440;-60
2023/06/09 01:02:42;;;;;;;5.68;3.13;;;;;;;17.58;62.86;101378.09;5331676;22;20119;-60
2023/06/09 01:05:08;;;;;;;4.82;3.22;;;;;;;17.61;62.70;101364.94;5036533;28;20065;-60
2023/06/09 01:07:38;;;;;;;4.70;2.53;;;;;;;17.60;62.96;101368.44;5392478;23;20235;-60
2023/06/09 01:10:09;;;;;;;5.63;3.10;;;;;;;17.60;62.59;101370.19;5154893;23;20045;-60
2023/06/09 01:12:46;;;;;;;5.32;3.33;;;;;;;17.56;62.62;101364.91;5213410;23;20061;-60
2023/06/09 01:15:17;;;;;;;5.15;2.75;;;;;;;17.54;63.26;101366.69;5148469;23;1090420;-61
2023/06/09 01:17:48;;;;;;;5.10;3.30;;;;;;;17.48;63.18;101360.50;5414201;23;20064;-60
2023/06/09 01:20:22;;;;;;;4.53;2.92;;;;;;;17.48;62.76;101366.66;5163151;23;20049;-60
2023/06/09 01:25:25;;;;;;;4.68;2.83;;;;;;;17.46;61.37;101349.94;5203044;22;20049;-60
2023/06/09 01:30:29;;;;;;;4.68;3.05;;;;;;;17.33;62.90;101356.94;5313829;22;20048;-60
2023/06/09 01:32:57;;;;;;;5.03;3.30;;;;;;;17.35;62.87;101355.19;5160148;23;20053;-60
2023/06/09 01:35:23;;;;;;;4.90;3.00;;;;;;;17.28;63.03;101350.78;5220067;23;20099;-60
2023/06/09 01:37:50;;;;;;;5.65;3.40;;;;;;;17.15;63.63;101357.75;5195686;23;20061;-60
2023/06/09 01:40:15;;;;;;;6.32;3.38;;;;;;;17.11;64.24;101348.06;5032432;28;20124;-60
2023/06/09 01:50:27;;;;;;;5.53;3.50;;;;;;;16.96;64.68;101350.59;5033417;28;20505;-60
2023/06/09 01:52:58;;;;;;;5.13;3.10;;;;;;;16.93;64.37;101356.75;5212820;22;20080;-60
2023/06/09 02:07:58;;;;;;;5.15;3.38;;;;;;;16.69;65.14;101349.56;5395206;22;20434;-60
2023/06/09 02:10:24;;;;;;;5.20;3.30;;;;;;;16.72;65.36;101346.94;5070736;23;20068;-60
2023/06/09 02:12:49;;;;;;;5.97;3.22;;;;;;;16.71;65.61;101347.81;5017638;28;20412;-60
2023/06/09 02:15:15;;;;;;;5.72;3.38;;;;;;;16.65;64.98;101345.13;5187350;22;20511;-60
2023/06/09 02:17:40;;;;;;;6.28;3.38;;;;;;;16.55;65.01;101336.31;5261627;23;20574;-60
2023/06/09 02:20:09;;;;;;;5.35;2.90;;;;;;;16.54;63.94;101338.91;5320763;22;20580;-60
2023/06/09 02:22:35;;;;;;;5.43;3.25;;;;;;;16.47;65.46;101327.50;5326653;22;20024;-60
2023/06/09 02:25:04;;;;;;;5.15;3.55;;;;;;;16.44;65.88;101333.59;5461158;22;20051;-60
2023/06/09 02:27:30;;;;;;;5.50;3.20;;;;;;;16.47;66.32;101338.00;5014174;28;20044;-57
2023/06/09 02:29:55;;;;;;;5.20;3.50;;;;;;;16.41;65.58;101341.47;5015909;28;20037;-57
2023/06/09 02:34:50;;;;;;;5.88;3.30;;;;;;;16.29;66.33;101330.84;5099535;22;20061;-60
2023/06/09 02:37:15;;;;;;;5.03;3.20;;;;;;;16.27;66.13;101329.97;5191645;23;20072;-60
2023/06/09 02:39:41;;;;;;;4.75;3.10;;;;;;;16.25;66.72;101334.31;5221011;22;20458;-60
2023/06/09 02:44:41;;;;;;;6.07;3.35;;;;;;;16.23;66.86;101336.06;5317915;22;20594;-60
2023/06/09 02:47:06;;;;;;;5.45;3.40;;;;;;;16.20;66.32;101323.78;5216252;22;20040;-60
2023/06/09 02:49:32;;;;;;;5.95;3.40;;;;;;;16.18;66.16;101336.03;5036151;28;20029;-61
2023/06/09 02:51:57;;;;;;;5.60;3.47;;;;;;;16.15;66.96;101323.75;5035177;28;20091;-60
2023/06/09 02:54:22;;;;;;;5.38;3.45;;;;;;;16.11;67.38;101321.94;5035538;28;20026;-60
2023/06/09 02:56:48;;;;;;;6.13;3.40;;;;;;;16.01;67.51;101330.63;5034818;28;20037;-60
2023/06/09 02:59:13;;;;;;;5.70;3.50;;;;;;;15.91;67.74;101332.28;5033595;28;20060;-60
2023/06/09 03:01:39;;;;;;;6.07;3.42;;;;;;;15.90;67.67;101332.28;5033284;28;20033;-60
2023/06/09 03:04:08;;;;;;;6.13;3.45;;;;;;;15.80;67.45;101323.41;5034869;28;20496;-60
2023/06/09 03:06:36;;;;;;;5.82;3.25;;;;;;;15.74;66.83;101326.84;5035059;28;20029;-56
2023/06/09 03:09:02;;;;;;;5.38;3.58;;;;;;;15.75;68.34;101325.97;5034000;28;20025;-56
2023/06/09 03:11:28;;;;;;;6.78;3.35;;;;;;;15.70;68.68;101332.94;5034872;28;20392;-56
2023/06/09 03:13:53;;;;;;;6.68;3.47;;;;;;;15.73;68.77;101334.69;5033587;28;20022;-57
2023/06/09 03:16:18;;;;;;;6.18;3.88;;;;;;;15.72;69.31;101338.22;5034374;28;20033;-57
2023/06/09 03:18:44;;;;;;;5.88;3.55;;;;;;;15.65;69.00;101327.59;5034339;28;20033;-57
2023/06/09 03:21:09;;;;;;;5.95;3.60;;;;;;;15.67;69.13;101335.53;5033582;28;20080;-56
2023/06/09 03:23:35;;;;;;;6.22;3.50;;;;;;;15.70;69.01;101330.31;5034184;28;20089;-57
2023/06/09 03:26:00;;;;;;;5.53;3.28;;;;;;;15.67;69.13;101327.66;5033787;28;20025;-57
2023/06/09 03:28:26;;;;;;;6.82;3.40;;;;;;;15.62;68.89;101335.47;5033130;28;20029;-57
2023/06/09 03:30:51;;;;;;;7.07;3.85;;;;;;;15.63;69.89;101329.34;5031960;28;20029;-57
2023/06/09 03:33:18;;;;;;;6.68;3.88;;;;;;;15.58;69.44;101331.06;5033118;28;20063;-57
2023/06/09 03:35:44;;;;;;;5.97;4.10;;;;;;;15.58;69.84;101338.03;5033640;28;20072;-56
2023/06/09 03:38:09;;;;;;;7.05;3.75;;;;;;;15.44;69.52;101328.28;5031976;28;20025;-57
2023/06/09 03:40:36;;;;;;;7.85;3.55;;;;;;;15.46;70.71;101326.53;5032186;28;20071;-57
2023/06/09 03:43:01;;;;;;;6.20;3.50;;;;;;;15.45;70.00;101337.03;5033484;28;20083;-56
2023/06/09 03:45:27;;;;;;;6.53;3.47;;;;;;;15.41;70.36;101341.38;5031502;28;20025;-57
2023/06/09 03:47:52;;;;;;;5.57;3.53;;;;;;;15.42;70.67;101351.00;5018085;28;20148;-57
2023/06/09 03:50:17;;;;;;;5.68;3.38;;;;;;;15.43;70.44;101354.53;5018015;28;20048;-57
2023/06/09 03:52:43;;;;;;;6.45;4.00;;;;;;;15.34;71.02;101368.41;5016128;28;20400;-56
2023/06/09 03:55:08;;;;;;;7.22;3.63;;;;;;;15.34;71.01;101360.53;5017440;28;20547;-56
2023/06/09 03:57:34;;;;;;;6.32;3.30;;;;;;;15.23;71.33;101359.53;5017165;28;20496;-56
2023/06/09 03:59:59;;;;;;;6.75;3.65;;;;;;;15.16;70.40;101362.94;5018480;28;20036;-57
2023/06/09 04:02:24;;;;;;;6.20;3.70;;;;;;;15.20;71.83;101360.34;5018016;28;20508;-57
2023/06/09 04:04:51;;;;;;;6.43;3.75;;;;;;;15.26;71.96;101356.94;5018551;28;20025;-56
2023/06/09 04:07:16;;;;;;;6.03;3.40;;;;;;;15.30;71.56;101364.00;5018082;28;20519;-57
2023/06/09 04:09:41;;;;;;;7.50;3.67;;;;;;;15.33;72.42;101361.41;5018399;28;20025;-57
2023/06/09 04:12:07;;;;;;;5.78;3.50;;;;;;;15.31;71.56;101352.63;5017965;28;20477;-57
2023/06/09 04:14:32;;;;;;;6.03;3.60;;;;;;;15.32;72.04;101364.00;5018174;28;20025;-57
2023/06/09 04:16:58;;;;;;;6.00;3.40;;;;;;;15.33;71.37;101357.91;5017919;28;20396;-57
2023/06/09 04:19:23;;;;;;;6.60;3.63;;;;;;;15.36;71.70;101366.69;5017103;28;20108;-57
2023/06/09 04:21:49;;;;;;;6.20;3.85;;;;;;;15.30;71.88;101367.50;5017997;28;20021;-57
2023/06/09 04:24:15;;;;;;;6.30;4.07;;;;;;;15.33;72.50;101365.78;5017770;28;20036;-57
2023/06/09 04:26:41;;;;;;;8.10;4.32;;;;;;;15.34;72.46;101362.28;5018510;28;20354;-56
2023/06/09 04:29:09;;;;;;;6.30;4.10;;;;;;;15.29;71.85;101359.59;5017706;28;20095;-57
2023/06/09 04:31:39;;;;;;;7.07;3.92;;;;;;;15.26;73.18;101364.81;5017528;28;20028;-57
2023/06/09 04:34:10;;;;;;;6.85;4.05;;;;;;;15.24;72.70;101367.41;5018043;28;20077;-57
2023/06/09 04:36:35;;;;;;;6.15;3.97;;;;;;;15.27;72.36;101364.81;5017605;28;20029;-57
2023/06/09 04:39:03;;;;;;;8.63;4.03;;;;;;;15.21;72.41;101369.13;5017762;28;20025;-56
2023/06/09 04:41:28;;;;;;;8.77;4.43;;;;;;;15.22;73.63;101370.88;5017801;28;20033;-57
2023/06/09 04:43:53;;;;;;;6.35;4.18;;;;;;;15.28;73.24;101363.09;5017373;28;20584;-57
2023/06/09 04:46:24;;;;;;;5.78;4.30;;;;;;;15.26;73.27;101365.69;5017091;28;20076;-56
2023/06/09 04:48:51;;;;;;;7.15;4.25;;;;;;;15.28;73.50;101373.59;5011961;28;20049;-56
2023/06/09 04:51:17;;;;;;;7.80;4.60;;;;;;;15.22;72.54;101368.25;5013075;28;20037;-57
2023/06/09 04:53:42;;;;;;;6.75;4.15;;;;;;;15.21;73.44;101371.75;5014422;28;20560;-56
2023/06/09 04:56:08;;;;;;;6.40;4.18;;;;;;;15.24;73.80;101374.44;5014608;28;20034;-56
2023/06/09 04:58:34;;;;;;;6.70;4.30;;;;;;;15.29;73.93;101370.09;5017283;28;20030;-57
2023/06/09 05:00:59;;;;;;;7.50;4.40;;;;;;;15.29;74.32;101372.72;5014860;28;20033;-57
2023/06/09 05:03:25;;;;;;;8.63;4.50;;;;;;;15.35;75.07;101379.78;5011044;28;20037;-57
2023/06/09 05:05:50;;;;;;;6.68;4.30;;;;;;;15.40;75.06;101371.13;5013817;28;20021;-57
2023/06/09 05:08:15;;;;;;;6.63;4.20;;;;;;;15.44;73.75;101375.53;5016616;28;20045;-57
2023/06/09 05:10:40;;;;;;;6.97;4.63;;;;;;;15.48;74.84;101382.59;5020374;28;20026;-57
2023/06/09 05:13:06;;;;;;;8.27;4.60;;;;;;;15.46;73.37;101375.56;5016704;28;21807;-57
2023/06/09 05:15:31;;;;;;;7.28;4.53;;;;;;;15.50;71.94;101380.00;5016522;28;20033;-57
2023/06/09 05:17:57;;;;;;;7.65;4.43;;;;;;;15.52;74.18;101382.63;4996075;28;20025;-57
2023/06/09 05:20:23;;;;;;;7.95;4.35;;;;;;;15.52;75.06;101386.13;5018486;28;20026;-57
2023/06/09 05:22:48;;;;;;;6.97;4.47;;;;;;;15.54;74.65;101371.28;5016729;28;20038;-56
2023/06/09 05:25:14;;;;;;;6.63;4.10;;;;;;;15.56;74.19;101374.81;5016841;28;20032;-57
2023/06/09 05:27:39;;;;;;;8.02;4.30;;;;;;;15.62;75.36;101379.25;5015545;28;20026;-57
2023/06/09 05:30:05;;;;;;;6.22;4.07;;;;;;;15.64;75.98;101378.41;5018242;28;20021;-57
2023/06/09 05:32:31;;;;;;;8.75;4.57;;;;;;;15.67;75.21;101377.56;5016726;28;20035;-57
2023/06/09 05:34:57;;;;;;;8.68;4.07;;;;;;;15.72;74.75;101377.63;5015294;28;20032;-57
2023/06/09 05:37:22;;;;;;;8.55;4.38;;;;;;;15.72;74.85;101382.88;5015197;28;20025;-57
2023/06/09 05:39:47;;;;;;;7.30;4.57;;;;;;;15.77;75.56;101382.06;5015880;28;20025;-57
2023/06/09 05:42:13;;;;;;;5.85;4.63;;;;;;;15.81;75.41;101383.88;5014922;28;20041;-57
2023/06/09 05:44:38;;;;;;;7.88;4.70;;;;;;;15.89;75.70;101380.44;5018420;28;20563;-57
2023/06/09 05:47:04;;;;;;;7.63;5.15;;;;;;;15.95;75.43;101385.78;5015081;28;20063;-57
2023/06/09 05:49:30;;;;;;;8.48;5.30;;;;;;;16.01;74.79;101388.44;5016495;28;20041;-57
2023/06/09 05:51:55;;;;;;;8.23;5.50;;;;;;;16.06;74.73;101392.03;5016834;28;20026;-57
2023/06/09 05:54:20;;;;;;;8.82;5.50;;;;;;;16.16;75.51;101378.09;5016284;28;20014;-57
2023/06/09 05:56:48;;;;;;;7.20;5.00;;;;;;;16.27;76.06;101380.81;5018115;28;20037;-57
2023/06/09 05:59:14;;;;;;;10.30;5.95;;;;;;;16.34;75.31;101389.63;5015463;28;20037;-57
2023/06/09 06:01:40;;;;;;;7.75;5.70;;;;;;;16.41;75.09;101383.56;5021461;28;20158;-57
2023/06/09 06:04:05;;;;;;;9.68;6.20;;;;;;;16.54;73.76;101384.53;5020744;28;20033;-57
2023/06/09 06:09:06;;;;;;;7.32;5.80;;;;;;;16.71;75.71;101379.38;4785031;22;20071;-61
2023/06/09 06:11:31;;;;;;;8.57;5.47;;;;;;;16.83;74.35;101382.09;5035666;28;20514;-61
2023/06/09 06:13:56;;;;;;;8.88;6.20;;;;;;;16.93;74.08;101383.09;5034335;28;20300;-61
2023/06/09 06:16:22;;;;;;;8.27;5.85;;;;;;;16.99;74.16;101369.94;5036132;28;20033;-57
2023/06/09 06:18:47;;;;;;;10.48;6.07;;;;;;;17.03;75.01;101371.72;5034469;28;20049;-57
2023/06/09 06:21:13;;;;;;;9.38;5.78;;;;;;;17.17;74.70;101377.06;5017994;28;20033;-57
2023/06/09 06:23:38;;;;;;;7.70;6.00;;;;;;;17.28;74.38;101373.59;5035250;28;20041;-57
2023/06/09 06:26:03;;;;;;;7.93;5.80;;;;;;;17.35;73.32;101376.28;5032743;28;20421;-58
2023/06/09 06:28:29;;;;;;;9.38;6.10;;;;;;;17.42;73.48;101379.78;5177056;23;20056;-61
2023/06/09 06:30:54;;;;;;;7.03;5.38;;;;;;;17.52;73.18;101381.63;5016147;28;20082;-60
2023/06/09 06:33:19;;;;;;;9.15;6.45;;;;;;;17.59;73.56;101379.84;5014302;28;20037;-61
2023/06/09 06:35:45;;;;;;;8.35;6.28;;;;;;;17.60;74.16;101380.72;5014802;28;20120;-61
2023/06/09 06:38:10;;;;;;;8.98;6.40;;;;;;;17.69;73.01;101380.78;5014108;28;20108;-61
2023/06/09 06:40:35;;;;;;;9.00;6.60;;;;;;;17.82;73.43;101377.28;5014763;28;20021;-61
2023/06/09 06:43:01;;;;;;;8.27;5.90;;;;;;;17.96;72.54;101376.44;5013940;28;20032;-61
2023/06/09 06:45:28;;;;;;;9.60;5.95;;;;;;;18.07;72.55;101380.88;5011925;28;20033;-61
2023/06/09 06:47:54;;;;;;;8.15;6.72;;;;;;;18.16;72.32;101374.75;5013582;28;20073;-58
2023/06/09 06:50:20;;;;;;;9.27;5.97;;;;;;;18.27;72.05;101368.59;5016528;28;20113;-58
2023/06/09 06:52:48;;;;;;;9.48;6.78;;;;;;;18.33;70.66;101371.22;5014587;28;20044;-58
2023/06/09 06:55:13;;;;;;;8.93;6.60;;;;;;;18.38;71.72;101372.97;5015730;28;20189;-58
2023/06/09 06:57:39;;;;;;;9.27;6.85;;;;;;;18.52;71.60;101377.38;5014763;28;20841;-58
2023/06/09 07:00:09;;;;;;;7.60;5.97;;;;;;;18.66;70.98;101372.94;5011728;28;20080;-58
2023/06/09 07:02:35;;;;;;;9.07;7.13;;;;;;;18.74;69.58;101370.28;5012698;28;20524;-58
2023/06/09 07:05:00;;;;;;;8.68;6.63;;;;;;;18.86;71.28;101370.31;5010514;28;20067;-58
2023/06/09 07:07:26;;;;;;;8.82;7.20;;;;;;;18.94;70.23;101367.63;5014171;28;20391;-58
2023/06/09 07:09:51;;;;;;;8.20;6.93;;;;;;;19.18;71.20;101379.91;5010804;28;20025;-58
2023/06/09 07:12:16;;;;;;;8.13;6.63;;;;;;;19.27;70.31;101379.00;5013546;28;20808;-58
2023/06/09 07:14:42;;;;;;;10.10;7.35;;;;;;;19.43;71.31;101377.16;4992447;28;20056;-58
2023/06/09 07:17:07;;;;;;;11.60;7.30;;;;;;;19.56;71.24;101378.84;5012329;28;20033;-58
2023/06/09 07:19:35;;;;;;;8.88;6.47;;;;;;;19.72;71.44;101378.78;5015404;28;20048;-58
2023/06/09 07:22:00;;;;;;;9.82;7.35;;;;;;;19.89;70.57;101376.06;5015716;28;20057;-58
2023/06/09 07:24:26;;;;;;;7.75;6.93;;;;;;;19.93;69.48;101380.47;5014589;28;20470;-58
2023/06/09 07:26:51;;;;;;;8.93;6.80;;;;;;;19.95;68.17;101386.59;5013919;28;20456;-58
2023/06/09 07:29:16;;;;;;;8.25;7.10;;;;;;;20.04;68.88;101380.38;5004209;28;20042;-58
2023/06/09 07:31:41;;;;;;;8.00;6.88;;;;;;;20.14;69.96;101379.41;5001991;28;20022;-59
2023/06/09 07:34:07;;;;;;;8.55;7.45;;;;;;;20.23;66.05;101384.63;5001211;28;20499;-59
2023/06/09 07:36:34;;;;;;;9.18;6.50;;;;;;;20.36;67.93;101379.25;5001403;28;20041;-59
2023/06/09 07:39:00;;;;;;;8.50;6.68;;;;;;;20.64;69.33;101382.53;5000416;28;20037;-58
2023/06/09 07:45:01;;;;;;;9.15;7.38;;;;;;;20.76;66.01;101381.56;5141474;23;20448;-61
2023/06/09 07:47:27;;;;;;;8.73;7.25;;;;;;;20.80;64.54;101384.16;5338107;23;20057;-60
2023/06/09 07:49:52;;;;;;;6.82;6.10;;;;;;;20.88;65.80;101380.53;5163544;23;20411;-61
2023/06/09 07:59:57;;;;;;;8.18;7.10;;;;;;;21.54;62.93;101367.41;5290683;22;20064;-61
2023/06/09 08:02:22;;;;;;;8.13;7.15;;;;;;;21.63;61.77;101362.88;5192888;22;20401;-61
2023/06/09 08:07:26;;;;;;;9.35;6.70;;;;;;;22.02;64.67;101363.19;5311398;22;20066;-61
2023/06/09 08:12:16;;;;;;;8.40;7.60;;;;;;;22.28;62.46;101364.53;5332553;22;20075;-59
2023/06/09 08:14:42;;;;;;;7.97;7.10;;;;;;;22.30;61.34;101358.28;5420264;22;20155;-60
2023/06/09 08:17:07;;;;;;;9.30;6.88;;;;;;;22.42;62.36;101362.56;5032357;28;20179;-56
2023/06/09 08:22:02;;;;;;;7.05;6.32;;;;;;;22.87;65.33;101359.06;5060029;23;20082;-61
2023/06/09 08:26:58;;;;;;;7.30;6.13;;;;;;;23.10;59.29;101355.94;5148949;22;20095;-60
2023/06/09 08:29:23;;;;;;;6.97;5.70;;;;;;;23.40;59.40;101349.13;5191832;22;20540;-60
2023/06/09 08:31:48;;;;;;;7.60;5.82;;;;;;;23.55;57.89;101352.34;5202963;23;20061;-60
2023/06/09 08:36:45;;;;;;;8.30;5.38;;;;;;;23.79;57.60;101354.44;5144278;22;20069;-60
2023/06/09 08:41:51;;;;;;;;;;;;;;;23.88;55.01;101352.53;5312608;22;20132;-60
2023/06/09 08:46:53;;;;;;;7.40;6.30;;;;;;;24.21;54.20;101364.13;5377439;23;20069;-63
2023/06/09 08:49:19;;;;;;;7.10;5.63;;;;;;;24.44;54.90;101360.03;5033923;28;20029;-63
2023/06/09 08:54:15;;;;;;;7.07;6.15;;;;;;;24.65;53.28;101358.59;5131181;22;20542;-63
2023/06/09 08:56:41;;;;;;;7.20;6.50;;;;;;;24.71;52.69;101358.44;5155695;22;20043;-63
2023/06/09 08:59:06;;;;;;;7.22;6.53;;;;;;;24.80;53.93;101358.19;5421329;22;21433;-62
2023/06/09 09:01:33;;;;;;;7.68;6.28;;;;;;;24.88;51.92;101339.28;5172313;22;20785;-63
2023/06/09 09:08:58;;;;;;;8.00;6.47;;;;;;;25.18;52.77;101348.19;5366985;22;20039;-64
2023/06/09 09:11:25;;;;;;;7.38;6.30;;;;;;;25.29;53.16;101347.03;5190933;22;20973;-63
2023/06/09 09:13:50;;;;;;;9.25;6.65;;;;;;;25.39;50.06;101340.53;5293780;22;20911;-65
2023/06/09 09:16:16;;;;;;;8.45;6.78;;;;;;;25.25;49.73;101338.25;5197778;23;21286;-65
2023/06/09 09:18:47;;;;;;;8.00;7.20;;;;;;;25.22;50.45;101326.81;5162128;23;20416;-66
2023/06/09 09:21:22;;;;;;;6.90;6.13;;;;;;;25.32;53.18;101336.31;5027036;28;20026;-64
2023/06/09 09:26:28;;;;;;;6.95;5.60;;;;;;;25.59;51.67;101331.03;5207795;22;20053;-64
2023/06/09 09:28:56;;;;;;;7.15;5.68;;;;;;;25.83;48.97;101332.91;5021657;28;20231;-64
2023/06/09 09:31:29;;;;;;;6.35;5.30;;;;;;;26.08;50.71;101333.94;5184176;22;20071;-64
2023/06/09 09:33:54;;;;;;;6.63;5.90;;;;;;;26.03;47.29;101331.44;5347038;22;20025;-64
2023/06/09 09:36:20;;;;;;;7.00;5.80;;;;;;;26.10;47.82;101316.94;5206400;22;20025;-64
2023/06/09 09:38:45;;;;;;;7.35;6.10;;;;;;;26.18;48.40;101314.00;5215730;22;20068;-64
2023/06/09 09:41:14;;;;;;;6.85;6.15;;;;;;;26.33;49.25;101320.59;5319264;22;20103;-64
2023/06/09 09:43:40;;;;;;;6.05;5.15;;;;;;;26.54;49.02;101322.53;5156691;23;20420;-65
2023/06/09 09:48:38;;;;;;;6.90;6.20;;;;;;;26.60;46.49;101315.22;5343111;22;20029;-63
2023/06/09 09:53:36;;;;;;;10.18;6.18;;;;;;;27.04;47.65;101315.38;5206652;22;20054;-64
2023/06/09 09:56:01;;;;;;;7.25;5.70;;;;;;;27.16;46.85;101309.59;5217100;22;20088;-65
2023/06/09 10:01:03;;;;;;;8.40;6.30;;;;;;;27.38;44.18;101308.78;5257180;22;20143;-64
2023/06/09 10:03:29;;;;;;;6.53;5.43;;;;;;;27.51;47.47;101312.72;5199595;23;20057;-64
2023/06/09 10:05:58;;;;;;;6.75;5.28;;;;;;;27.47;42.17;101313.75;5024273;28;20056;-64
2023/06/09 10:08:29;;;;;;;6.97;6.28;;;;;;;27.71;45.60;101311.91;5024750;28;20021;-60
2023/06/09 10:15:56;;;;;;;6.20;5.60;;;;;;;27.66;45.77;101297.81;5226475;22;20049;-64
2023/06/09 10:20:52;;;;;;;6.15;4.90;;;;;;;27.59;43.09;101309.72;5284989;22;1075790;31
2023/06/09 10:23:19;;;;;;;6.65;5.80;;;;;;;27.72;43.02;101304.72;5265277;23;20734;-64
2023/06/09 10:25:50;;;;;;;6.32;5.45;;;;;;;27.98;42.03;101303.69;5240157;23;20049;-64
2023/06/09 10:28:17;;;;;;;6.30;4.80;;;;;;;28.01;40.36;101314.28;5029876;28;20131;-64
2023/06/09 10:30:43;;;;;;;5.97;4.95;;;;;;;28.30;43.92;101305.94;5176340;23;20104;-64
2023/06/09 10:33:14;;;;;;;5.78;5.15;;;;;;;28.60;41.85;101298.34;5029350;28;20116;-64
2023/06/09 10:35:43;;;;;;;6.25;5.65;;;;;;;28.69;43.43;101294.41;5127527;22;20080;-64
2023/06/09 10:40:49;;;;;;;6.15;5.55;;;;;;;28.89;42.11;101285.44;4996133;26;20084;-64
2023/06/09 10:45:51;;;;;;;6.30;5.70;;;;;;;28.92;41.45;101286.19;5140547;22;20585;-64
2023/06/09 10:48:42;;;;;;;6.13;5.53;;;;;;;28.89;42.56;101286.31;5196176;22;20099;-64
2023/06/09 10:51:26;;;;;;;7.47;5.80;;;;;;;28.97;39.50;101272.56;5033239;28;21055;-65
2023/06/09 11:01:33;;;;;;;7.22;6.57;;;;;;;28.80;39.02;101274.19;4998859;26;20213;-64
2023/06/09 11:03:58;;;;;;;7.37;6.67;;;;;;;29.07;40.52;101267.59;4999166;28;20029;-65
2023/06/09 11:06:24;;;;;;;8.20;7.40;;;;;;;28.77;39.01;101268.97;4999253;28;20665;-64
2023/06/09 11:09:14;;;;;;;7.18;5.60;;;;;;;29.07;42.19;101262.22;4998139;28;20284;-64
2023/06/09 11:11:53;;;;;;;7.70;6.90;;;;;;;28.96;38.54;101265.44;4999863;28;20494;-64
2023/06/09 11:14:43;;;;;;;6.60;5.63;;;;;;;28.98;40.69;101260.84;4999006;28;20090;-64
2023/06/09 11:17:16;;;;;;;7.65;5.40;;;;;;;29.16;38.39;101267.19;4998784;28;20034;-64
2023/06/09 11:19:42;;;;;;;6.45;4.78;;;;;;;29.37;40.11;101267.09;4998078;28;20032;-65
2023/06/09 11:27:18;;;;;;;6.18;5.57;;;;;;;29.29;38.16;101268.34;5397641;23;20040;-64
2023/06/09 11:30:07;;;;;;;5.95;5.43;;;;;;;29.53;40.33;101260.03;5181207;23;20053;-60
2023/06/09 11:32:53;;;;;;;5.93;5.18;;;;;;;30.03;40.59;101253.09;5388032;22;20020;-64
2023/06/09 11:35:30;;;;;;;6.82;5.30;;;;;;;30.18;40.04;101256.78;5374322;22;20086;-64
2023/06/09 11:40:26;;;;;;;6.20;5.57;;;;;;;29.76;36.43;101260.69;5163855;23;20053;-64
2023/06/09 11:45:31;;;;;;;5.78;5.28;;;;;;;29.86;38.88;101256.63;5411267;23;20264;-66
2023/06/09 11:55:34;;;;;;;8.60;6.20;;;;;;;29.83;39.07;101232.63;5285022;22;20697;-65
